Página principal
METAR-TAF:

METAR-TAF

Aeroportos :

Aeroporto Internacional do Cairo

Cairo, Egipto

latitude: 30-08N, longitude: 031-24E, altura: 64 m

Observação actual do tempo

O boletim foi feito há 23 minutos, às 06:00 UTC
Vento 4 kt de este
Temperatura 17°C
Humidade 72%
Pressão 1022 hPa
Visibilidade: 6000 m
Nuvens dispersasa uma altura de 2500 ft

METAR: HECA 170600Z 09004KT 6000 SCT025 17/12 Q1022 NOSIG

Hora: 08:23 (06:23 UTC)

Previsão

O boletim foi feito há 1 hora e 23 minutos, às 05:00 UTC
Previsão válida de 17 às 06 UTC a 18 às 12 UTC
Vento 6 kt de nor-nordeste
Visibilidade 10 km ou mais
Nuvens dispersasa uma altura de 2500 ft
Temporariamente
de 17 às 06 UTC a 17 às 08 UTC
Vento 3 kt com direcção variável
Visibilidade: 4000 m
bruma
Temporariamente
de 18 às 06 UTC a 18 às 08 UTC
Vento 3 kt com direcção variável
Visibilidade: 4000 m
bruma

TAF: HECA 170500Z 1706/1812 02006KT 9999 SCT025 TEMPO 1706/1708 VRB03KT 4000 HZ NSC TEMPO 1806/1808 VRB03KT 4000 HZ NSC

Observações e previsões do tempo de mais de 4000 aeroportos (mensagens METAR e TAF).

As estações disponíveis são os pontos amarelos e vermelhos sobre o mapa.

Mova o rato sobre o mapa para ver o nome da estação.

Depois clique no ponto para visualizar as observações e previsões meteorológicas.

Para alterar o mapa : clique nos botões verdes com uma cruz preta para aumentar o zoom; no botão verde com uma pitada de zoom; ou nas setas verdes para mapas adjacentes.


METAR-TAF: